sensor_id;sensor_type;location;lat;lon;timestamp;temperature;humidity
20487;DHT22;10402;49.012;8.370;2022-10-16T00:01:21;17.20;99.90
20487;DHT22;10402;49.012;8.370;2022-10-16T00:03:48;17.20;99.90
20487;DHT22;10402;49.012;8.370;2022-10-16T00:06:16;17.20;99.90
20487;DHT22;10402;49.012;8.370;2022-10-16T00:08:41;17.20;99.90
20487;DHT22;10402;49.012;8.370;2022-10-16T00:11:19;17.20;99.90
20487;DHT22;10402;49.012;8.370;2022-10-16T00:13:46;17.20;99.90
20487;DHT22;10402;49.012;8.370;2022-10-16T00:16:12;17.20;99.90
20487;DHT22;10402;49.012;8.370;2022-10-16T00:18:39;17.30;99.90
20487;DHT22;10402;49.012;8.370;2022-10-16T00:21:14;17.30;99.90
20487;DHT22;10402;49.012;8.370;2022-10-16T00:23:40;17.30;99.90
20487;DHT22;10402;49.012;8.370;2022-10-16T00:26:12;17.30;99.90
20487;DHT22;10402;49.012;8.370;2022-10-16T00:28:38;17.30;99.90
20487;DHT22;10402;49.012;8.370;2022-10-16T00:31:06;17.30;99.90
20487;DHT22;10402;49.012;8.370;2022-10-16T00:33:32;17.30;99.90
20487;DHT22;10402;49.012;8.370;2022-10-16T00:35:58;17.30;99.90
20487;DHT22;10402;49.012;8.370;2022-10-16T00:38:24;17.30;99.90
20487;DHT22;10402;49.012;8.370;2022-10-16T00:40:50;17.20;99.90
20487;DHT22;10402;49.012;8.370;2022-10-16T00:43:40;17.20;99.90
20487;DHT22;10402;49.012;8.370;2022-10-16T00:48:48;17.20;99.90
20487;DHT22;10402;49.012;8.370;2022-10-16T00:51:15;17.20;99.90
20487;DHT22;10402;49.012;8.370;2022-10-16T00:53:43;17.20;99.90
20487;DHT22;10402;49.012;8.370;2022-10-16T00:56:09;17.20;99.90
20487;DHT22;10402;49.012;8.370;2022-10-16T00:58:35;17.20;99.90
20487;DHT22;10402;49.012;8.370;2022-10-16T01:01:00;17.20;99.90
20487;DHT22;10402;49.012;8.370;2022-10-16T01:03:32;17.20;99.90
20487;DHT22;10402;49.012;8.370;2022-10-16T01:08:52;17.20;99.90
20487;DHT22;10402;49.012;8.370;2022-10-16T01:11:33;17.30;99.90
20487;DHT22;10402;49.012;8.370;2022-10-16T01:16:57;17.30;99.90
20487;DHT22;10402;49.012;8.370;2022-10-16T01:22:09;17.30;99.90
20487;DHT22;10402;49.012;8.370;2022-10-16T01:24:45;17.30;99.90
20487;DHT22;10402;49.012;8.370;2022-10-16T01:27:12;17.30;99.90
20487;DHT22;10402;49.012;8.370;2022-10-16T01:32:35;17.20;99.90
20487;DHT22;10402;49.012;8.370;2022-10-16T01:35:05;17.20;99.90
20487;DHT22;10402;49.012;8.370;2022-10-16T01:37:47;17.20;99.90
20487;DHT22;10402;49.012;8.370;2022-10-16T01:40:16;17.30;99.90
20487;DHT22;10402;49.012;8.370;2022-10-16T01:42:46;17.20;99.90
20487;DHT22;10402;49.012;8.370;2022-10-16T01:45:15;17.30;99.90
20487;DHT22;10402;49.012;8.370;2022-10-16T01:47:43;17.20;99.90
20487;DHT22;10402;49.012;8.370;2022-10-16T01:50:09;17.20;99.90
20487;DHT22;10402;49.012;8.370;2022-10-16T01:52:38;17.10;99.90
20487;DHT22;10402;49.012;8.370;2022-10-16T01:55:07;17.10;99.90
20487;DHT22;10402;49.012;8.370;2022-10-16T01:57:37;17.10;99.90
20487;DHT22;10402;49.012;8.370;2022-10-16T02:00:08;17.10;99.90
20487;DHT22;10402;49.012;8.370;2022-10-16T02:02:35;17.10;99.90
20487;DHT22;10402;49.012;8.370;2022-10-16T02:05:08;17.10;99.90
20487;DHT22;10402;49.012;8.370;2022-10-16T02:07:36;17.10;99.90
20487;DHT22;10402;49.012;8.370;2022-10-16T02:10:01;17.10;99.90
20487;DHT22;10402;49.012;8.370;2022-10-16T02:12:30;17.10;99.90
20487;DHT22;10402;49.012;8.370;2022-10-16T02:14:57;17.10;99.90
20487;DHT22;10402;49.012;8.370;2022-10-16T02:17:23;17.00;99.90
20487;DHT22;10402;49.012;8.370;2022-10-16T02:19:51;17.00;99.90
20487;DHT22;10402;49.012;8.370;2022-10-16T02:22:28;17.00;99.90
20487;DHT22;10402;49.012;8.370;2022-10-16T02:25:11;17.10;99.90
20487;DHT22;10402;49.012;8.370;2022-10-16T02:28:05;17.00;99.90
20487;DHT22;10402;49.012;8.370;2022-10-16T02:30:42;17.10;99.90
20487;DHT22;10402;49.012;8.370;2022-10-16T02:33:11;17.00;99.90
20487;DHT22;10402;49.012;8.370;2022-10-16T02:35:39;17.00;99.90
20487;DHT22;10402;49.012;8.370;2022-10-16T02:38:06;17.00;99.90
20487;DHT22;10402;49.012;8.370;2022-10-16T02:40:33;17.00;99.90
20487;DHT22;10402;49.012;8.370;2022-10-16T02:42:58;17.00;99.90
20487;DHT22;10402;49.012;8.370;2022-10-16T02:45:24;17.00;99.90
20487;DHT22;10402;49.012;8.370;2022-10-16T02:47:50;16.90;99.90
20487;DHT22;10402;49.012;8.370;2022-10-16T02:50:16;16.90;99.90
20487;DHT22;10402;49.012;8.370;2022-10-16T02:52:42;16.90;99.90
20487;DHT22;10402;49.012;8.370;2022-10-16T02:55:08;16.90;99.90
20487;DHT22;10402;49.012;8.370;2022-10-16T02:57:34;16.90;99.90
20487;DHT22;10402;49.012;8.370;2022-10-16T03:00:00;16.90;99.90
20487;DHT22;10402;49.012;8.370;2022-10-16T03:02:26;16.90;99.90
20487;DHT22;10402;49.012;8.370;2022-10-16T03:04:51;16.90;99.90
20487;DHT22;10402;49.012;8.370;2022-10-16T03:07:17;16.90;99.90
20487;DHT22;10402;49.012;8.370;2022-10-16T03:09:42;16.90;99.90
20487;DHT22;10402;49.012;8.370;2022-10-16T03:12:08;16.90;99.90
20487;DHT22;10402;49.012;8.370;2022-10-16T03:14:34;16.90;99.90
20487;DHT22;10402;49.012;8.370;2022-10-16T03:16:59;16.90;99.90
20487;DHT22;10402;49.012;8.370;2022-10-16T03:19:25;16.90;99.90
20487;DHT22;10402;49.012;8.370;2022-10-16T03:21:50;16.90;99.90
20487;DHT22;10402;49.012;8.370;2022-10-16T03:24:16;17.00;99.90
20487;DHT22;10402;49.012;8.370;2022-10-16T03:26:41;17.00;99.90
20487;DHT22;10402;49.012;8.370;2022-10-16T03:29:07;16.90;99.90
20487;DHT22;10402;49.012;8.370;2022-10-16T03:31:33;16.90;99.90
20487;DHT22;10402;49.012;8.370;2022-10-16T03:33:58;16.90;99.90
20487;DHT22;10402;49.012;8.370;2022-10-16T03:36:24;16.90;99.90
20487;DHT22;10402;49.012;8.370;2022-10-16T03:38:49;16.90;99.90
20487;DHT22;10402;49.012;8.370;2022-10-16T03:41:15;16.80;99.90
20487;DHT22;10402;49.012;8.370;2022-10-16T03:43:41;16.90;99.90
20487;DHT22;10402;49.012;8.370;2022-10-16T03:46:06;16.90;99.90
20487;DHT22;10402;49.012;8.370;2022-10-16T03:48:32;16.90;99.90
20487;DHT22;10402;49.012;8.370;2022-10-16T03:50:58;16.80;99.90
20487;DHT22;10402;49.012;8.370;2022-10-16T03:53:24;16.80;99.90
20487;DHT22;10402;49.012;8.370;2022-10-16T03:55:50;16.90;99.90
20487;DHT22;10402;49.012;8.370;2022-10-16T03:58:15;16.90;99.90
20487;DHT22;10402;49.012;8.370;2022-10-16T04:00:42;16.90;99.90
20487;DHT22;10402;49.012;8.370;2022-10-16T04:03:08;16.90;99.90
20487;DHT22;10402;49.012;8.370;2022-10-16T04:05:34;16.90;99.90
20487;DHT22;10402;49.012;8.370;2022-10-16T04:07:59;16.90;99.90
20487;DHT22;10402;49.012;8.370;2022-10-16T04:10:25;16.90;99.90
20487;DHT22;10402;49.012;8.370;2022-10-16T04:12:51;16.80;99.90
20487;DHT22;10402;49.012;8.370;2022-10-16T04:15:16;16.80;99.90
20487;DHT22;10402;49.012;8.370;2022-10-16T04:17:42;16.80;99.90
20487;DHT22;10402;49.012;8.370;2022-10-16T04:20:08;16.90;99.90
20487;DHT22;10402;49.012;8.370;2022-10-16T04:22:33;16.90;99.90
20487;DHT22;10402;49.012;8.370;2022-10-16T04:24:59;16.80;99.90
20487;DHT22;10402;49.012;8.370;2022-10-16T04:27:25;16.90;99.90
20487;DHT22;10402;49.012;8.370;2022-10-16T04:29:50;16.90;99.90
20487;DHT22;10402;49.012;8.370;2022-10-16T04:32:16;16.90;99.90
20487;DHT22;10402;49.012;8.370;2022-10-16T04:34:41;16.90;99.90
20487;DHT22;10402;49.012;8.370;2022-10-16T04:37:07;16.90;99.90
20487;DHT22;10402;49.012;8.370;2022-10-16T04:39:32;16.90;99.90
20487;DHT22;10402;49.012;8.370;2022-10-16T04:41:58;16.90;99.90
20487;DHT22;10402;49.012;8.370;2022-10-16T04:44:23;16.90;99.90
20487;DHT22;10402;49.012;8.370;2022-10-16T04:46:52;16.90;99.90
20487;DHT22;10402;49.012;8.370;2022-10-16T04:49:17;16.90;99.90
20487;DHT22;10402;49.012;8.370;2022-10-16T04:51:43;16.90;99.90
20487;DHT22;10402;49.012;8.370;2022-10-16T04:54:09;16.90;99.90
20487;DHT22;10402;49.012;8.370;2022-10-16T04:56:35;16.90;99.90
20487;DHT22;10402;49.012;8.370;2022-10-16T04:59:08;16.90;99.90
20487;DHT22;10402;49.012;8.370;2022-10-16T05:01:34;16.90;99.90
20487;DHT22;10402;49.012;8.370;2022-10-16T05:03:59;17.00;99.90
20487;DHT22;10402;49.012;8.370;2022-10-16T05:06:25;16.90;99.90
20487;DHT22;10402;49.012;8.370;2022-10-16T05:08:50;16.90;99.90
20487;DHT22;10402;49.012;8.370;2022-10-16T05:11:16;16.90;99.90
20487;DHT22;10402;49.012;8.370;2022-10-16T05:13:41;16.90;99.90
20487;DHT22;10402;49.012;8.370;2022-10-16T05:16:07;16.90;99.90
20487;DHT22;10402;49.012;8.370;2022-10-16T05:18:32;16.90;99.90
20487;DHT22;10402;49.012;8.370;2022-10-16T05:20:58;16.90;99.90
20487;DHT22;10402;49.012;8.370;2022-10-16T05:23:23;16.90;99.90
20487;DHT22;10402;49.012;8.370;2022-10-16T05:25:53;16.90;99.90
20487;DHT22;10402;49.012;8.370;2022-10-16T05:28:20;16.90;99.90
20487;DHT22;10402;49.012;8.370;2022-10-16T05:30:45;16.90;99.90
20487;DHT22;10402;49.012;8.370;2022-10-16T05:33:11;16.90;99.90
20487;DHT22;10402;49.012;8.370;2022-10-16T05:35:36;16.90;99.90
20487;DHT22;10402;49.012;8.370;2022-10-16T05:38:02;16.90;99.90
20487;DHT22;10402;49.012;8.370;2022-10-16T05:40:27;16.90;99.90
20487;DHT22;10402;49.012;8.370;2022-10-16T05:42:56;16.90;99.90
20487;DHT22;10402;49.012;8.370;2022-10-16T05:45:22;16.90;99.90
20487;DHT22;10402;49.012;8.370;2022-10-16T05:47:47;16.90;99.90
20487;DHT22;10402;49.012;8.370;2022-10-16T05:50:13;16.90;99.90
20487;DHT22;10402;49.012;8.370;2022-10-16T05:52:38;16.90;99.90
20487;DHT22;10402;49.012;8.370;2022-10-16T05:55:04;16.90;99.90
20487;DHT22;10402;49.012;8.370;2022-10-16T05:57:30;17.00;99.90
20487;DHT22;10402;49.012;8.370;2022-10-16T05:59:56;16.90;99.90
20487;DHT22;10402;49.012;8.370;2022-10-16T06:02:21;16.90;99.90
20487;DHT22;10402;49.012;8.370;2022-10-16T06:04:47;16.90;99.90
20487;DHT22;10402;49.012;8.370;2022-10-16T06:07:12;16.90;99.90
20487;DHT22;10402;49.012;8.370;2022-10-16T06:09:38;16.90;99.90
20487;DHT22;10402;49.012;8.370;2022-10-16T06:12:03;16.90;99.90
20487;DHT22;10402;49.012;8.370;2022-10-16T06:14:29;16.90;99.90
20487;DHT22;10402;49.012;8.370;2022-10-16T06:16:54;16.80;99.90
20487;DHT22;10402;49.012;8.370;2022-10-16T06:19:20;16.80;99.90
20487;DHT22;10402;49.012;8.370;2022-10-16T06:21:45;16.80;99.90
20487;DHT22;10402;49.012;8.370;2022-10-16T06:24:11;16.80;99.90
20487;DHT22;10402;49.012;8.370;2022-10-16T06:26:37;16.80;99.90
20487;DHT22;10402;49.012;8.370;2022-10-16T06:29:03;16.80;99.90
20487;DHT22;10402;49.012;8.370;2022-10-16T06:31:29;16.80;99.90
20487;DHT22;10402;49.012;8.370;2022-10-16T06:33:56;16.80;99.90
20487;DHT22;10402;49.012;8.370;2022-10-16T06:36:23;16.80;99.90
20487;DHT22;10402;49.012;8.370;2022-10-16T06:38:49;16.80;99.90
20487;DHT22;10402;49.012;8.370;2022-10-16T06:41:17;16.80;99.90
20487;DHT22;10402;49.012;8.370;2022-10-16T06:43:43;16.80;99.90
20487;DHT22;10402;49.012;8.370;2022-10-16T06:46:13;16.80;99.90
20487;DHT22;10402;49.012;8.370;2022-10-16T06:48:38;16.80;99.90
20487;DHT22;10402;49.012;8.370;2022-10-16T06:51:08;16.80;99.90
20487;DHT22;10402;49.012;8.370;2022-10-16T06:53:34;16.80;99.90
20487;DHT22;10402;49.012;8.370;2022-10-16T06:58:36;16.80;99.90
20487;DHT22;10402;49.012;8.370;2022-10-16T07:01:03;16.90;99.90
20487;DHT22;10402;49.012;8.370;2022-10-16T07:03:29;16.90;99.90
20487;DHT22;10402;49.012;8.370;2022-10-16T07:05:54;17.00;99.90
20487;DHT22;10402;49.012;8.370;2022-10-16T07:08:20;17.00;99.90
20487;DHT22;10402;49.012;8.370;2022-10-16T07:10:45;17.00;99.90
20487;DHT22;10402;49.012;8.370;2022-10-16T07:13:11;17.00;99.90
20487;DHT22;10402;49.012;8.370;2022-10-16T07:15:39;17.00;99.90
20487;DHT22;10402;49.012;8.370;2022-10-16T07:18:05;17.00;99.90
20487;DHT22;10402;49.012;8.370;2022-10-16T07:20:30;17.10;99.90
20487;DHT22;10402;49.012;8.370;2022-10-16T07:22:56;17.10;99.90
20487;DHT22;10402;49.012;8.370;2022-10-16T07:25:21;17.10;99.90
20487;DHT22;10402;49.012;8.370;2022-10-16T07:27:47;17.10;99.90
20487;DHT22;10402;49.012;8.370;2022-10-16T07:30:12;17.10;99.90
20487;DHT22;10402;49.012;8.370;2022-10-16T07:32:38;17.10;99.90
20487;DHT22;10402;49.012;8.370;2022-10-16T07:35:04;17.10;99.90
20487;DHT22;10402;49.012;8.370;2022-10-16T07:37:29;17.10;99.90
20487;DHT22;10402;49.012;8.370;2022-10-16T07:39:55;17.20;99.90
20487;DHT22;10402;49.012;8.370;2022-10-16T07:42:20;17.20;99.90
20487;DHT22;10402;49.012;8.370;2022-10-16T07:44:46;17.30;99.90
20487;DHT22;10402;49.012;8.370;2022-10-16T07:47:11;17.30;99.90
20487;DHT22;10402;49.012;8.370;2022-10-16T07:49:37;17.30;99.90
20487;DHT22;10402;49.012;8.370;2022-10-16T07:52:02;17.30;99.90
20487;DHT22;10402;49.012;8.370;2022-10-16T07:54:28;17.40;99.90
20487;DHT22;10402;49.012;8.370;2022-10-16T07:56:53;17.40;99.90
20487;DHT22;10402;49.012;8.370;2022-10-16T07:59:19;17.40;99.90
20487;DHT22;10402;49.012;8.370;2022-10-16T08:01:44;17.50;99.90
20487;DHT22;10402;49.012;8.370;2022-10-16T08:04:10;17.50;99.90
20487;DHT22;10402;49.012;8.370;2022-10-16T08:06:37;17.50;99.90
20487;DHT22;10402;49.012;8.370;2022-10-16T08:09:04;17.60;99.90
20487;DHT22;10402;49.012;8.370;2022-10-16T08:11:30;17.60;99.90
20487;DHT22;10402;49.012;8.370;2022-10-16T08:13:55;17.60;99.90
20487;DHT22;10402;49.012;8.370;2022-10-16T08:16:21;17.70;99.90
20487;DHT22;10402;49.012;8.370;2022-10-16T08:18:46;17.70;99.90
20487;DHT22;10402;49.012;8.370;2022-10-16T08:21:15;17.80;99.90
20487;DHT22;10402;49.012;8.370;2022-10-16T08:23:41;17.80;99.90
20487;DHT22;10402;49.012;8.370;2022-10-16T08:26:07;17.80;99.90
20487;DHT22;10402;49.012;8.370;2022-10-16T08:28:33;17.80;99.90
20487;DHT22;10402;49.012;8.370;2022-10-16T08:31:10;17.90;99.90
20487;DHT22;10402;49.012;8.370;2022-10-16T08:33:37;17.90;99.90
20487;DHT22;10402;49.012;8.370;2022-10-16T08:36:04;18.00;99.90
20487;DHT22;10402;49.012;8.370;2022-10-16T08:38:30;18.00;99.90
20487;DHT22;10402;49.012;8.370;2022-10-16T08:46:47;18.10;99.90
20487;DHT22;10402;49.012;8.370;2022-10-16T08:49:15;18.10;99.90
20487;DHT22;10402;49.012;8.370;2022-10-16T08:51:42;18.20;99.90
20487;DHT22;10402;49.012;8.370;2022-10-16T08:54:29;18.20;99.90
20487;DHT22;10402;49.012;8.370;2022-10-16T08:56:57;18.20;99.90
20487;DHT22;10402;49.012;8.370;2022-10-16T08:59:26;18.30;99.90
20487;DHT22;10402;49.012;8.370;2022-10-16T09:01:52;18.30;99.90
20487;DHT22;10402;49.012;8.370;2022-10-16T09:12:54;18.50;99.90
20487;DHT22;10402;49.012;8.370;2022-10-16T09:15:34;18.50;99.90
20487;DHT22;10402;49.012;8.370;2022-10-16T09:18:15;18.50;99.90
20487;DHT22;10402;49.012;8.370;2022-10-16T09:20:49;18.50;99.90
20487;DHT22;10402;49.012;8.370;2022-10-16T09:23:32;18.50;99.90
20487;DHT22;10402;49.012;8.370;2022-10-16T09:25:59;18.50;99.90
20487;DHT22;10402;49.012;8.370;2022-10-16T09:28:26;18.50;99.90
20487;DHT22;10402;49.012;8.370;2022-10-16T09:30:51;18.50;99.90
20487;DHT22;10402;49.012;8.370;2022-10-16T09:33:20;18.50;99.90
20487;DHT22;10402;49.012;8.370;2022-10-16T09:35:50;18.50;99.90
20487;DHT22;10402;49.012;8.370;2022-10-16T09:38:35;18.40;99.90
20487;DHT22;10402;49.012;8.370;2022-10-16T09:41:11;18.50;99.90
20487;DHT22;10402;49.012;8.370;2022-10-16T09:43:41;18.60;99.90
20487;DHT22;10402;49.012;8.370;2022-10-16T09:46:27;18.60;99.90
20487;DHT22;10402;49.012;8.370;2022-10-16T09:49:03;18.70;99.90
20487;DHT22;10402;49.012;8.370;2022-10-16T09:51:37;18.80;99.90
20487;DHT22;10402;49.012;8.370;2022-10-16T09:54:15;18.80;99.90
20487;DHT22;10402;49.012;8.370;2022-10-16T09:56:41;18.80;99.90
20487;DHT22;10402;49.012;8.370;2022-10-16T10:01:43;18.90;99.90
20487;DHT22;10402;49.012;8.370;2022-10-16T10:04:10;19.00;99.90
20487;DHT22;10402;49.012;8.370;2022-10-16T10:09:15;19.10;99.80
20487;DHT22;10402;49.012;8.370;2022-10-16T10:14:39;19.20;99.60
20487;DHT22;10402;49.012;8.370;2022-10-16T10:28:07;19.40;99.40
20487;DHT22;10402;49.012;8.370;2022-10-16T10:36:34;19.50;99.10
20487;DHT22;10402;49.012;8.370;2022-10-16T10:42:12;19.50;99.10
20487;DHT22;10402;49.012;8.370;2022-10-16T10:50:46;19.60;98.90
20487;DHT22;10402;49.012;8.370;2022-10-16T10:53:44;19.50;98.80
20487;DHT22;10402;49.012;8.370;2022-10-16T11:04:30;19.60;98.70
20487;DHT22;10402;49.012;8.370;2022-10-16T11:07:02;19.60;98.70
20487;DHT22;10402;49.012;8.370;2022-10-16T11:09:36;19.70;98.60
20487;DHT22;10402;49.012;8.370;2022-10-16T11:14:46;19.80;98.40
20487;DHT22;10402;49.012;8.370;2022-10-16T11:20:27;20.00;98.20
20487;DHT22;10402;49.012;8.370;2022-10-16T11:23:08;20.10;98.10
20487;DHT22;10402;49.012;8.370;2022-10-16T11:25:36;20.10;98.00
20487;DHT22;10402;49.012;8.370;2022-10-16T11:30:29;20.20;97.80
20487;DHT22;10402;49.012;8.370;2022-10-16T11:35:41;20.30;97.60
20487;DHT22;10402;49.012;8.370;2022-10-16T11:38:29;20.40;97.60
20487;DHT22;10402;49.012;8.370;2022-10-16T11:41:00;20.40;97.50
20487;DHT22;10402;49.012;8.370;2022-10-16T11:43:43;20.40;97.40
20487;DHT22;10402;49.012;8.370;2022-10-16T11:46:19;20.50;97.40
20487;DHT22;10402;49.012;8.370;2022-10-16T11:54:52;20.60;97.10
20487;DHT22;10402;49.012;8.370;2022-10-16T11:57:28;20.70;96.90
20487;DHT22;10402;49.012;8.370;2022-10-16T12:00:14;20.80;96.80
20487;DHT22;10402;49.012;8.370;2022-10-16T12:08:15;20.80;96.60
20487;DHT22;10402;49.012;8.370;2022-10-16T12:10:45;20.80;96.80
20487;DHT22;10402;49.012;8.370;2022-10-16T12:13:37;20.80;96.40
20487;DHT22;10402;49.012;8.370;2022-10-16T12:18:39;20.80;96.30
20487;DHT22;10402;49.012;8.370;2022-10-16T12:21:05;20.90;96.30
20487;DHT22;10402;49.012;8.370;2022-10-16T12:23:36;20.90;96.30
20487;DHT22;10402;49.012;8.370;2022-10-16T12:26:03;20.90;96.20
20487;DHT22;10402;49.012;8.370;2022-10-16T12:28:31;20.90;96.10
20487;DHT22;10402;49.012;8.370;2022-10-16T12:31:01;20.90;96.00
20487;DHT22;10402;49.012;8.370;2022-10-16T12:33:29;20.90;96.00
20487;DHT22;10402;49.012;8.370;2022-10-16T12:35:57;21.00;96.00
20487;DHT22;10402;49.012;8.370;2022-10-16T12:38:45;21.00;96.00
20487;DHT22;10402;49.012;8.370;2022-10-16T12:41:11;21.00;95.90
20487;DHT22;10402;49.012;8.370;2022-10-16T12:43:46;21.00;95.90
20487;DHT22;10402;49.012;8.370;2022-10-16T12:48:42;21.00;95.80
20487;DHT22;10402;49.012;8.370;2022-10-16T12:51:34;21.00;95.80
20487;DHT22;10402;49.012;8.370;2022-10-16T12:54:27;21.00;95.70
20487;DHT22;10402;49.012;8.370;2022-10-16T13:05:43;20.90;95.40
20487;DHT22;10402;49.012;8.370;2022-10-16T13:19:08;20.70;95.10
20487;DHT22;10402;49.012;8.370;2022-10-16T13:21:46;20.70;95.10
20487;DHT22;10402;49.012;8.370;2022-10-16T13:24:49;20.70;95.10
20487;DHT22;10402;49.012;8.370;2022-10-16T13:29:54;20.70;95.10
20487;DHT22;10402;49.012;8.370;2022-10-16T13:32:24;20.70;95.10
20487;DHT22;10402;49.012;8.370;2022-10-16T13:34:50;20.70;95.00
20487;DHT22;10402;49.012;8.370;2022-10-16T13:37:22;20.70;94.90
20487;DHT22;10402;49.012;8.370;2022-10-16T13:39:48;20.70;94.90
20487;DHT22;10402;49.012;8.370;2022-10-16T13:42:25;20.70;95.00
20487;DHT22;10402;49.012;8.370;2022-10-16T13:44:53;20.70;95.00
20487;DHT22;10402;49.012;8.370;2022-10-16T13:47:24;20.70;95.00
20487;DHT22;10402;49.012;8.370;2022-10-16T13:50:12;20.70;95.00
20487;DHT22;10402;49.012;8.370;2022-10-16T13:52:38;20.60;95.10
20487;DHT22;10402;49.012;8.370;2022-10-16T13:55:10;20.60;95.10
20487;DHT22;10402;49.012;8.370;2022-10-16T13:57:35;20.60;95.10
20487;DHT22;10402;49.012;8.370;2022-10-16T14:00:01;20.60;95.10
20487;DHT22;10402;49.012;8.370;2022-10-16T14:02:35;20.60;95.50
20487;DHT22;10402;49.012;8.370;2022-10-16T14:05:04;20.50;95.20
20487;DHT22;10402;49.012;8.370;2022-10-16T14:07:34;20.50;95.20
20487;DHT22;10402;49.012;8.370;2022-10-16T14:10:24;20.50;95.20
20487;DHT22;10402;49.012;8.370;2022-10-16T14:13:05;20.50;95.20
20487;DHT22;10402;49.012;8.370;2022-10-16T14:15:33;20.50;95.20
20487;DHT22;10402;49.012;8.370;2022-10-16T14:17:59;20.50;95.30
20487;DHT22;10402;49.012;8.370;2022-10-16T14:20:30;20.50;95.30
20487;DHT22;10402;49.012;8.370;2022-10-16T14:23:30;20.50;95.30
20487;DHT22;10402;49.012;8.370;2022-10-16T14:28:34;20.50;95.30
20487;DHT22;10402;49.012;8.370;2022-10-16T14:31:01;20.60;95.30
20487;DHT22;10402;49.012;8.370;2022-10-16T14:36:05;20.70;95.20
20487;DHT22;10402;49.012;8.370;2022-10-16T14:38:32;20.70;95.10
20487;DHT22;10402;49.012;8.370;2022-10-16T14:40:59;20.70;95.10
20487;DHT22;10402;49.012;8.370;2022-10-16T14:43:40;20.80;95.10
20487;DHT22;10402;49.012;8.370;2022-10-16T14:46:13;20.90;95.00
20487;DHT22;10402;49.012;8.370;2022-10-16T14:48:48;20.90;94.90
20487;DHT22;10402;49.012;8.370;2022-10-16T14:51:16;21.00;94.80
20487;DHT22;10402;49.012;8.370;2022-10-16T14:53:42;21.00;94.70
20487;DHT22;10402;49.012;8.370;2022-10-16T14:56:14;21.00;94.70
20487;DHT22;10402;49.012;8.370;2022-10-16T14:58:41;21.00;94.60
20487;DHT22;10402;49.012;8.370;2022-10-16T15:01:08;21.00;94.60
20487;DHT22;10402;49.012;8.370;2022-10-16T15:03:36;21.00;94.50
20487;DHT22;10402;49.012;8.370;2022-10-16T15:06:01;21.00;94.40
20487;DHT22;10402;49.012;8.370;2022-10-16T15:08:27;21.00;94.40
20487;DHT22;10402;49.012;8.370;2022-10-16T15:10:52;21.00;94.40
20487;DHT22;10402;49.012;8.370;2022-10-16T15:13:18;21.00;94.40
20487;DHT22;10402;49.012;8.370;2022-10-16T15:15:45;21.00;94.40
20487;DHT22;10402;49.012;8.370;2022-10-16T15:18:11;21.00;94.50
20487;DHT22;10402;49.012;8.370;2022-10-16T15:20:38;20.90;94.50
20487;DHT22;10402;49.012;8.370;2022-10-16T15:23:09;20.90;94.60
20487;DHT22;10402;49.012;8.370;2022-10-16T15:25:41;20.90;94.60
20487;DHT22;10402;49.012;8.370;2022-10-16T15:28:08;20.90;94.60
20487;DHT22;10402;49.012;8.370;2022-10-16T15:30:34;20.90;94.60
20487;DHT22;10402;49.012;8.370;2022-10-16T15:33:01;20.90;94.60
20487;DHT22;10402;49.012;8.370;2022-10-16T15:35:26;20.90;94.70
20487;DHT22;10402;49.012;8.370;2022-10-16T15:37:52;20.80;94.70
20487;DHT22;10402;49.012;8.370;2022-10-16T15:40:18;20.80;94.70
20487;DHT22;10402;49.012;8.370;2022-10-16T15:42:44;20.80;94.80
20487;DHT22;10402;49.012;8.370;2022-10-16T15:45:11;20.80;94.80
20487;DHT22;10402;49.012;8.370;2022-10-16T15:47:37;20.80;94.90
20487;DHT22;10402;49.012;8.370;2022-10-16T15:50:03;20.80;94.90
20487;DHT22;10402;49.012;8.370;2022-10-16T15:52:29;20.70;95.00
20487;DHT22;10402;49.012;8.370;2022-10-16T15:54:57;20.70;95.10
20487;DHT22;10402;49.012;8.370;2022-10-16T15:57:22;20.70;95.10
20487;DHT22;10402;49.012;8.370;2022-10-16T15:59:49;20.70;95.10
20487;DHT22;10402;49.012;8.370;2022-10-16T16:02:15;20.70;95.20
20487;DHT22;10402;49.012;8.370;2022-10-16T16:04:41;20.70;95.30
20487;DHT22;10402;49.012;8.370;2022-10-16T16:07:06;20.70;95.30
20487;DHT22;10402;49.012;8.370;2022-10-16T16:09:35;20.70;95.30
20487;DHT22;10402;49.012;8.370;2022-10-16T16:12:00;20.60;95.30
20487;DHT22;10402;49.012;8.370;2022-10-16T16:14:27;20.60;95.40
20487;DHT22;10402;49.012;8.370;2022-10-16T16:16:56;20.60;95.50
20487;DHT22;10402;49.012;8.370;2022-10-16T16:19:22;20.50;95.60
20487;DHT22;10402;49.012;8.370;2022-10-16T16:21:49;20.50;95.60
20487;DHT22;10402;49.012;8.370;2022-10-16T16:24:14;20.50;95.70
20487;DHT22;10402;49.012;8.370;2022-10-16T16:26:40;20.40;95.70
20487;DHT22;10402;49.012;8.370;2022-10-16T16:29:11;20.30;95.70
20487;DHT22;10402;49.012;8.370;2022-10-16T16:31:41;20.30;95.90
20487;DHT22;10402;49.012;8.370;2022-10-16T16:34:06;20.20;95.90
20487;DHT22;10402;49.012;8.370;2022-10-16T16:36:32;20.20;96.00
20487;DHT22;10402;49.012;8.370;2022-10-16T16:38:58;20.20;96.10
20487;DHT22;10402;49.012;8.370;2022-10-16T16:41:26;20.10;96.10
20487;DHT22;10402;49.012;8.370;2022-10-16T16:43:53;20.10;96.20
20487;DHT22;10402;49.012;8.370;2022-10-16T16:46:19;20.00;96.40
20487;DHT22;10402;49.012;8.370;2022-10-16T16:48:46;19.90;96.50
20487;DHT22;10402;49.012;8.370;2022-10-16T16:51:15;19.80;96.60
20487;DHT22;10402;49.012;8.370;2022-10-16T16:53:44;19.80;96.80
20487;DHT22;10402;49.012;8.370;2022-10-16T16:56:10;19.70;96.80
20487;DHT22;10402;49.012;8.370;2022-10-16T16:58:36;19.70;97.30
20487;DHT22;10402;49.012;8.370;2022-10-16T17:01:02;19.60;97.00
20487;DHT22;10402;49.012;8.370;2022-10-16T17:03:29;19.60;97.10
20487;DHT22;10402;49.012;8.370;2022-10-16T17:05:59;19.60;97.20
20487;DHT22;10402;49.012;8.370;2022-10-16T17:08:25;19.60;97.20
20487;DHT22;10402;49.012;8.370;2022-10-16T17:10:50;19.50;97.20
20487;DHT22;10402;49.012;8.370;2022-10-16T17:13:21;19.50;97.30
20487;DHT22;10402;49.012;8.370;2022-10-16T17:15:48;19.50;97.20
20487;DHT22;10402;49.012;8.370;2022-10-16T17:18:14;19.40;97.40
20487;DHT22;10402;49.012;8.370;2022-10-16T17:20:39;19.30;97.50
20487;DHT22;10402;49.012;8.370;2022-10-16T17:23:06;19.40;97.60
20487;DHT22;10402;49.012;8.370;2022-10-16T17:25:31;19.30;97.70
20487;DHT22;10402;49.012;8.370;2022-10-16T17:27:57;19.30;97.80
20487;DHT22;10402;49.012;8.370;2022-10-16T17:30:25;19.20;97.80
20487;DHT22;10402;49.012;8.370;2022-10-16T17:32:51;19.20;97.90
20487;DHT22;10402;49.012;8.370;2022-10-16T17:35:16;19.10;97.90
20487;DHT22;10402;49.012;8.370;2022-10-16T17:37:42;19.10;98.00
20487;DHT22;10402;49.012;8.370;2022-10-16T17:40:08;19.00;98.10
20487;DHT22;10402;49.012;8.370;2022-10-16T17:42:34;19.00;98.20
20487;DHT22;10402;49.012;8.370;2022-10-16T17:45:00;18.90;98.20
20487;DHT22;10402;49.012;8.370;2022-10-16T17:47:27;18.90;98.40